sensor_id;sensor_type;location;lat;lon;timestamp;pressure;altitude;pressure_sealevel;temperature;humidity
54870;BME280;40756;-37.950;145.008;2023-02-16T00:02:00;101036.17;;;31.98;21.92
54870;BME280;40756;-37.950;145.008;2023-02-16T00:04:30;101031.68;;;32.42;20.77
54870;BME280;40756;-37.950;145.008;2023-02-16T00:06:59;101033.51;;;32.71;20.92
54870;BME280;40756;-37.950;145.008;2023-02-16T00:09:28;101037.88;;;33.19;20.50
54870;BME280;40756;-37.950;145.008;2023-02-16T00:11:58;101033.00;;;32.60;19.62
54870;BME280;40756;-37.950;145.008;2023-02-16T00:14:28;101035.46;;;33.27;19.63
54870;BME280;40756;-37.950;145.008;2023-02-16T00:16:59;101034.45;;;33.40;20.00
54870;BME280;40756;-37.950;145.008;2023-02-16T00:19:32;101038.29;;;33.47;19.42
54870;BME280;40756;-37.950;145.008;2023-02-16T00:22:03;101030.39;;;33.38;19.60
54870;BME280;40756;-37.950;145.008;2023-02-16T00:24:33;101027.90;;;33.87;19.75
54870;BME280;40756;-37.950;145.008;2023-02-16T00:27:12;101028.98;;;33.50;19.49
54870;BME280;40756;-37.950;145.008;2023-02-16T00:29:43;101025.44;;;33.86;19.02
54870;BME280;40756;-37.950;145.008;2023-02-16T00:32:13;101022.71;;;33.73;19.03
54870;BME280;40756;-37.950;145.008;2023-02-16T00:34:43;101017.15;;;33.80;19.02
54870;BME280;40756;-37.950;145.008;2023-02-16T00:37:14;101021.17;;;33.76;18.33
54870;BME280;40756;-37.950;145.008;2023-02-16T00:39:44;101015.91;;;33.57;18.68
54870;BME280;40756;-37.950;145.008;2023-02-16T00:42:18;101012.94;;;33.59;18.28
54870;BME280;40756;-37.950;145.008;2023-02-16T00:44:49;101012.44;;;33.52;18.08
54870;BME280;40756;-37.950;145.008;2023-02-16T00:47:22;101005.03;;;33.62;18.30
54870;BME280;40756;-37.950;145.008;2023-02-16T00:49:56;101003.88;;;33.88;18.16
54870;BME280;40756;-37.950;145.008;2023-02-16T00:52:32;101002.16;;;34.31;18.24
54870;BME280;40756;-37.950;145.008;2023-02-16T00:55:04;100998.95;;;34.34;17.41
54870;BME280;40756;-37.950;145.008;2023-02-16T00:57:36;100990.88;;;34.72;17.78
54870;BME280;40756;-37.950;145.008;2023-02-16T01:00:12;100985.86;;;35.05;17.93
54870;BME280;40756;-37.950;145.008;2023-02-16T01:02:43;100989.32;;;35.19;18.41
54870;BME280;40756;-37.950;145.008;2023-02-16T01:05:13;100981.80;;;34.75;16.77
54870;BME280;40756;-37.950;145.008;2023-02-16T01:07:44;100985.20;;;34.95;16.67
54870;BME280;40756;-37.950;145.008;2023-02-16T01:10:17;100984.13;;;35.26;17.50
54870;BME280;40756;-37.950;145.008;2023-02-16T01:12:47;100978.70;;;35.93;17.20
54870;BME280;40756;-37.950;145.008;2023-02-16T01:15:26;100981.74;;;35.57;17.27
54870;BME280;40756;-37.950;145.008;2023-02-16T01:17:56;100975.19;;;35.68;16.58
54870;BME280;40756;-37.950;145.008;2023-02-16T01:20:27;100979.54;;;35.80;16.22
54870;BME280;40756;-37.950;145.008;2023-02-16T01:22:57;100978.56;;;35.88;16.89
54870;BME280;40756;-37.950;145.008;2023-02-16T01:25:27;100969.03;;;36.19;16.57
54870;BME280;40756;-37.950;145.008;2023-02-16T01:27:57;100966.35;;;36.46;16.27
54870;BME280;40756;-37.950;145.008;2023-02-16T01:30:27;100964.68;;;36.75;15.98
54870;BME280;40756;-37.950;145.008;2023-02-16T01:32:56;100965.05;;;36.99;17.03
54870;BME280;40756;-37.950;145.008;2023-02-16T01:35:34;100956.18;;;36.92;15.96
54870;BME280;40756;-37.950;145.008;2023-02-16T01:38:04;100952.67;;;37.36;16.32
54870;BME280;40756;-37.950;145.008;2023-02-16T01:40:40;100946.33;;;37.58;16.03
54870;BME280;40756;-37.950;145.008;2023-02-16T01:43:19;100939.51;;;37.47;15.20
54870;BME280;40756;-37.950;145.008;2023-02-16T01:45:54;100945.09;;;37.34;15.86
54870;BME280;40756;-37.950;145.008;2023-02-16T01:48:27;100948.73;;;37.09;14.79
54870;BME280;40756;-37.950;145.008;2023-02-16T01:51:02;100940.24;;;37.84;14.98
54870;BME280;40756;-37.950;145.008;2023-02-16T01:53:39;100933.92;;;37.50;14.74
54870;BME280;40756;-37.950;145.008;2023-02-16T01:56:20;100930.85;;;37.80;15.25
54870;BME280;40756;-37.950;145.008;2023-02-16T01:58:59;100935.34;;;37.54;14.30
54870;BME280;40756;-37.950;145.008;2023-02-16T02:01:46;100927.66;;;37.79;14.32
54870;BME280;40756;-37.950;145.008;2023-02-16T02:04:26;100924.63;;;37.73;14.16
54870;BME280;40756;-37.950;145.008;2023-02-16T02:06:57;100918.74;;;37.66;14.12
54870;BME280;40756;-37.950;145.008;2023-02-16T02:09:32;100913.62;;;38.07;14.35
54870;BME280;40756;-37.950;145.008;2023-02-16T02:12:12;100908.20;;;38.71;14.30
54870;BME280;40756;-37.950;145.008;2023-02-16T02:14:43;100901.68;;;38.70;14.88
54870;BME280;40756;-37.950;145.008;2023-02-16T02:17:16;100900.79;;;39.08;13.95
54870;BME280;40756;-37.950;145.008;2023-02-16T02:19:55;100898.42;;;39.32;13.96
54870;BME280;40756;-37.950;145.008;2023-02-16T02:23:19;100890.91;;;38.76;13.16
54870;BME280;40756;-37.950;145.008;2023-02-16T02:27:11;100889.51;;;39.08;13.67
54870;BME280;40756;-37.950;145.008;2023-02-16T02:30:12;100884.19;;;38.64;12.61
54870;BME280;40756;-37.950;145.008;2023-02-16T02:33:00;100889.82;;;39.60;13.14
54870;BME280;40756;-37.950;145.008;2023-02-16T02:35:45;100880.58;;;39.54;14.18
54870;BME280;40756;-37.950;145.008;2023-02-16T02:38:22;100879.79;;;39.60;13.32
54870;BME280;40756;-37.950;145.008;2023-02-16T02:41:02;100874.95;;;39.88;13.46
54870;BME280;40756;-37.950;145.008;2023-02-16T02:43:37;100866.68;;;40.69;12.47
54870;BME280;40756;-37.950;145.008;2023-02-16T02:46:14;100869.25;;;39.91;12.48
54870;BME280;40756;-37.950;145.008;2023-02-16T02:48:45;100864.22;;;40.26;11.50
54870;BME280;40756;-37.950;145.008;2023-02-16T02:51:15;100855.13;;;41.04;11.97
54870;BME280;40756;-37.950;145.008;2023-02-16T02:53:47;100855.46;;;41.33;11.57
54870;BME280;40756;-37.950;145.008;2023-02-16T02:56:22;100851.63;;;41.52;11.76
54870;BME280;40756;-37.950;145.008;2023-02-16T02:58:54;100849.50;;;41.68;11.55
54870;BME280;40756;-37.950;145.008;2023-02-16T03:01:24;100849.10;;;41.53;11.11
54870;BME280;40756;-37.950;145.008;2023-02-16T03:03:56;100847.68;;;40.98;9.68
54870;BME280;40756;-37.950;145.008;2023-02-16T03:06:29;100837.79;;;40.93;10.44
54870;BME280;40756;-37.950;145.008;2023-02-16T03:09:04;100831.25;;;41.52;11.10
54870;BME280;40756;-37.950;145.008;2023-02-16T03:11:35;100833.94;;;42.41;10.90
54870;BME280;40756;-37.950;145.008;2023-02-16T03:14:07;100833.51;;;41.98;10.73
54870;BME280;40756;-37.950;145.008;2023-02-16T03:16:41;100831.56;;;41.64;11.43
54870;BME280;40756;-37.950;145.008;2023-02-16T03:19:14;100830.31;;;41.61;11.11
54870;BME280;40756;-37.950;145.008;2023-02-16T03:21:45;100830.55;;;41.34;10.55
54870;BME280;40756;-37.950;145.008;2023-02-16T03:24:20;100828.68;;;41.12;10.55
54870;BME280;40756;-37.950;145.008;2023-02-16T03:26:54;100827.45;;;41.86;10.53
54870;BME280;40756;-37.950;145.008;2023-02-16T03:29:26;100823.14;;;42.42;10.90
54870;BME280;40756;-37.950;145.008;2023-02-16T03:31:57;100809.87;;;42.83;11.19
54870;BME280;40756;-37.950;145.008;2023-02-16T03:34:27;100812.04;;;41.74;9.21
54870;BME280;40756;-37.950;145.008;2023-02-16T03:36:59;100807.47;;;41.51;9.67
54870;BME280;40756;-37.950;145.008;2023-02-16T03:39:29;100803.37;;;41.51;12.03
54870;BME280;40756;-37.950;145.008;2023-02-16T03:42:00;100801.08;;;40.21;12.64
54870;BME280;40756;-37.950;145.008;2023-02-16T03:44:29;100797.88;;;39.28;13.71
54870;BME280;40756;-37.950;145.008;2023-02-16T03:46:59;100796.30;;;39.50;13.47
54870;BME280;40756;-37.950;145.008;2023-02-16T03:49:28;100799.44;;;39.46;13.21
54870;BME280;40756;-37.950;145.008;2023-02-16T03:51:57;100796.15;;;39.57;11.78
54870;BME280;40756;-37.950;145.008;2023-02-16T03:54:26;100793.35;;;39.65;10.72
54870;BME280;40756;-37.950;145.008;2023-02-16T03:56:56;100789.59;;;40.30;10.50
54870;BME280;40756;-37.950;145.008;2023-02-16T03:59:25;100785.16;;;40.23;8.81
54870;BME280;40756;-37.950;145.008;2023-02-16T04:01:55;100775.80;;;40.49;8.79
54870;BME280;40756;-37.950;145.008;2023-02-16T04:04:25;100772.07;;;41.17;8.68
54870;BME280;40756;-37.950;145.008;2023-02-16T04:06:55;100767.16;;;41.67;8.25
54870;BME280;40756;-37.950;145.008;2023-02-16T04:09:24;100766.24;;;41.82;8.70
54870;BME280;40756;-37.950;145.008;2023-02-16T04:11:54;100768.46;;;41.13;8.31
54870;BME280;40756;-37.950;145.008;2023-02-16T04:14:23;100768.83;;;40.79;8.03
54870;BME280;40756;-37.950;145.008;2023-02-16T04:16:52;100764.77;;;41.39;7.99
54870;BME280;40756;-37.950;145.008;2023-02-16T04:19:21;100757.52;;;41.60;8.25
54870;BME280;40756;-37.950;145.008;2023-02-16T04:21:51;100753.11;;;42.00;8.22
54870;BME280;40756;-37.950;145.008;2023-02-16T04:24:21;100751.48;;;42.25;7.74
54870;BME280;40756;-37.950;145.008;2023-02-16T04:26:50;100744.79;;;42.57;7.07
54870;BME280;40756;-37.950;145.008;2023-02-16T04:29:19;100740.17;;;42.55;7.09
54870;BME280;40756;-37.950;145.008;2023-02-16T04:31:48;100736.30;;;43.01;6.44
54870;BME280;40756;-37.950;145.008;2023-02-16T04:34:19;100735.43;;;42.77;7.12
54870;BME280;40756;-37.950;145.008;2023-02-16T04:36:48;100734.83;;;42.05;6.73
54870;BME280;40756;-37.950;145.008;2023-02-16T04:39:17;100726.92;;;42.09;6.77
54870;BME280;40756;-37.950;145.008;2023-02-16T04:41:47;100726.42;;;41.94;7.28
54870;BME280;40756;-37.950;145.008;2023-02-16T04:44:16;100725.48;;;42.10;6.94
54870;BME280;40756;-37.950;145.008;2023-02-16T04:46:46;100723.71;;;42.16;7.70
54870;BME280;40756;-37.950;145.008;2023-02-16T04:49:15;100721.19;;;42.46;7.60
54870;BME280;40756;-37.950;145.008;2023-02-16T04:51:45;100719.05;;;42.20;7.99
54870;BME280;40756;-37.950;145.008;2023-02-16T04:54:14;100717.60;;;41.65;7.39
54870;BME280;40756;-37.950;145.008;2023-02-16T04:56:45;100719.30;;;41.00;7.24
54870;BME280;40756;-37.950;145.008;2023-02-16T04:59:16;100718.36;;;41.53;8.16
54870;BME280;40756;-37.950;145.008;2023-02-16T05:01:45;100715.60;;;41.12;7.59
54870;BME280;40756;-37.950;145.008;2023-02-16T05:04:15;100714.95;;;41.72;7.61
54870;BME280;40756;-37.950;145.008;2023-02-16T05:06:45;100723.18;;;41.03;7.65
54870;BME280;40756;-37.950;145.008;2023-02-16T05:09:17;100717.90;;;41.32;7.80
54870;BME280;40756;-37.950;145.008;2023-02-16T05:11:46;100719.73;;;40.65;10.58
54870;BME280;40756;-37.950;145.008;2023-02-16T05:14:21;100711.92;;;41.48;9.71
54870;BME280;40756;-37.950;145.008;2023-02-16T05:16:51;100709.19;;;42.11;9.69
54870;BME280;40756;-37.950;145.008;2023-02-16T05:19:21;100714.07;;;41.52;9.87
54870;BME280;40756;-37.950;145.008;2023-02-16T05:21:51;100715.44;;;41.68;9.77
54870;BME280;40756;-37.950;145.008;2023-02-16T05:24:20;100716.25;;;41.66;9.09
54870;BME280;40756;-37.950;145.008;2023-02-16T05:26:50;100717.30;;;41.76;7.98
54870;BME280;40756;-37.950;145.008;2023-02-16T05:29:19;100716.82;;;41.88;8.26
54870;BME280;40756;-37.950;145.008;2023-02-16T05:31:49;100730.67;;;41.11;10.67
54870;BME280;40756;-37.950;145.008;2023-02-16T05:34:19;100731.02;;;40.99;11.72
54870;BME280;40756;-37.950;145.008;2023-02-16T05:36:49;100729.47;;;40.79;11.40
54870;BME280;40756;-37.950;145.008;2023-02-16T05:39:18;100728.04;;;40.82;11.30
54870;BME280;40756;-37.950;145.008;2023-02-16T05:41:48;100730.10;;;41.08;10.99
54870;BME280;40756;-37.950;145.008;2023-02-16T05:44:17;100728.41;;;40.95;10.22
54870;BME280;40756;-37.950;145.008;2023-02-16T05:46:46;100728.01;;;40.61;9.76
54870;BME280;40756;-37.950;145.008;2023-02-16T05:49:16;100724.69;;;40.36;10.10
54870;BME280;40756;-37.950;145.008;2023-02-16T05:51:46;100725.18;;;39.92;9.09
54870;BME280;40756;-37.950;145.008;2023-02-16T05:54:16;100721.46;;;40.70;9.34
54870;BME280;40756;-37.950;145.008;2023-02-16T05:56:47;100714.74;;;39.79;9.46
54870;BME280;40756;-37.950;145.008;2023-02-16T05:59:18;100714.69;;;39.50;9.21
54870;BME280;40756;-37.950;145.008;2023-02-16T06:01:48;100709.65;;;40.23;8.95
54870;BME280;40756;-37.950;145.008;2023-02-16T06:04:17;100710.98;;;40.59;8.69
54870;BME280;40756;-37.950;145.008;2023-02-16T06:06:47;100710.54;;;40.82;8.55
54870;BME280;40756;-37.950;145.008;2023-02-16T06:09:18;100705.23;;;40.77;8.83
54870;BME280;40756;-37.950;145.008;2023-02-16T06:11:48;100699.56;;;40.35;8.25
54870;BME280;40756;-37.950;145.008;2023-02-16T06:14:19;100696.71;;;40.13;8.44
54870;BME280;40756;-37.950;145.008;2023-02-16T06:16:50;100696.96;;;39.87;8.73
54870;BME280;40756;-37.950;145.008;2023-02-16T06:19:20;100699.67;;;39.75;9.05
54870;BME280;40756;-37.950;145.008;2023-02-16T06:21:49;100700.86;;;39.74;8.74
54870;BME280;40756;-37.950;145.008;2023-02-16T06:24:18;100703.15;;;39.41;8.99
54870;BME280;40756;-37.950;145.008;2023-02-16T06:26:48;100701.58;;;39.19;9.34
54870;BME280;40756;-37.950;145.008;2023-02-16T06:29:17;100699.70;;;39.09;9.95
54870;BME280;40756;-37.950;145.008;2023-02-16T06:31:47;100698.31;;;38.77;9.79
54870;BME280;40756;-37.950;145.008;2023-02-16T06:34:17;100696.24;;;38.84;9.86
54870;BME280;40756;-37.950;145.008;2023-02-16T06:36:47;100695.06;;;39.45;9.42
54870;BME280;40756;-37.950;145.008;2023-02-16T06:39:16;100696.23;;;39.21;9.55
54870;BME280;40756;-37.950;145.008;2023-02-16T06:41:45;100694.01;;;39.19;9.47
54870;BME280;40756;-37.950;145.008;2023-02-16T06:44:15;100694.54;;;38.97;10.02
54870;BME280;40756;-37.950;145.008;2023-02-16T06:46:46;100693.17;;;39.19;9.43
54870;BME280;40756;-37.950;145.008;2023-02-16T06:49:17;100689.58;;;38.49;9.61
54870;BME280;40756;-37.950;145.008;2023-02-16T06:51:47;100689.76;;;38.95;10.94
54870;BME280;40756;-37.950;145.008;2023-02-16T06:54:17;100688.59;;;38.68;10.48
54870;BME280;40756;-37.950;145.008;2023-02-16T06:56:47;100688.67;;;38.28;10.55
54870;BME280;40756;-37.950;145.008;2023-02-16T06:59:16;100687.03;;;38.79;10.66
54870;BME280;40756;-37.950;145.008;2023-02-16T07:01:45;100687.04;;;38.99;11.71
54870;BME280;40756;-37.950;145.008;2023-02-16T07:04:14;100683.01;;;39.14;10.76
54870;BME280;40756;-37.950;145.008;2023-02-16T07:06:44;100676.92;;;39.35;10.28
54870;BME280;40756;-37.950;145.008;2023-02-16T07:09:13;100680.58;;;39.13;9.42
54870;BME280;40756;-37.950;145.008;2023-02-16T07:11:42;100690.66;;;38.42;13.19
54870;BME280;40756;-37.950;145.008;2023-02-16T07:14:11;100698.05;;;37.40;16.12
54870;BME280;40756;-37.950;145.008;2023-02-16T07:16:40;100694.41;;;36.61;18.19
54870;BME280;40756;-37.950;145.008;2023-02-16T07:19:10;100695.59;;;35.24;19.64
54870;BME280;40756;-37.950;145.008;2023-02-16T07:21:40;100697.65;;;35.41;19.89
54870;BME280;40756;-37.950;145.008;2023-02-16T07:24:09;100698.53;;;34.91;20.64
54870;BME280;40756;-37.950;145.008;2023-02-16T07:26:39;100704.63;;;34.88;20.86
54870;BME280;40756;-37.950;145.008;2023-02-16T07:29:08;100705.67;;;34.41;20.80
54870;BME280;40756;-37.950;145.008;2023-02-16T07:31:38;100707.13;;;34.03;20.60
54870;BME280;40756;-37.950;145.008;2023-02-16T07:34:07;100702.82;;;34.26;20.64
54870;BME280;40756;-37.950;145.008;2023-02-16T07:36:36;100703.10;;;33.96;20.65
54870;BME280;40756;-37.950;145.008;2023-02-16T07:39:06;100703.93;;;34.17;20.68
54870;BME280;40756;-37.950;145.008;2023-02-16T07:41:36;100703.70;;;33.30;21.15
54870;BME280;40756;-37.950;145.008;2023-02-16T07:44:05;100706.71;;;33.80;21.20
54870;BME280;40756;-37.950;145.008;2023-02-16T07:46:34;100710.25;;;33.20;21.59
54870;BME280;40756;-37.950;145.008;2023-02-16T07:49:04;100713.93;;;33.25;21.39
54870;BME280;40756;-37.950;145.008;2023-02-16T07:51:33;100717.07;;;32.98;21.77
54870;BME280;40756;-37.950;145.008;2023-02-16T07:54:03;100720.47;;;33.58;22.09
54870;BME280;40756;-37.950;145.008;2023-02-16T07:56:34;100729.08;;;32.95;22.52
54870;BME280;40756;-37.950;145.008;2023-02-16T07:59:04;100733.75;;;32.66;22.26
54870;BME280;40756;-37.950;145.008;2023-02-16T08:01:33;100735.06;;;32.87;22.11
54870;BME280;40756;-37.950;145.008;2023-02-16T08:04:02;100743.83;;;32.62;21.53
54870;BME280;40756;-37.950;145.008;2023-02-16T08:06:32;100748.15;;;32.53;21.36
54870;BME280;40756;-37.950;145.008;2023-02-16T08:09:02;100752.45;;;32.89;21.19
54870;BME280;40756;-37.950;145.008;2023-02-16T08:11:32;100746.41;;;32.72;21.35
54870;BME280;40756;-37.950;145.008;2023-02-16T08:14:01;100752.36;;;32.75;21.40
54870;BME280;40756;-37.950;145.008;2023-02-16T08:16:30;100753.85;;;32.41;21.17
54870;BME280;40756;-37.950;145.008;2023-02-16T08:19:01;100757.88;;;32.85;21.13
54870;BME280;40756;-37.950;145.008;2023-02-16T08:21:32;100760.85;;;32.23;21.03
54870;BME280;40756;-37.950;145.008;2023-02-16T08:24:05;100765.87;;;32.33;21.03
54870;BME280;40756;-37.950;145.008;2023-02-16T08:26:36;100775.10;;;32.33;21.19
54870;BME280;40756;-37.950;145.008;2023-02-16T08:29:06;100777.28;;;32.17;21.36
54870;BME280;40756;-37.950;145.008;2023-02-16T08:31:37;100782.41;;;31.54;21.97
54870;BME280;40756;-37.950;145.008;2023-02-16T08:34:06;100784.10;;;31.66;21.96
54870;BME280;40756;-37.950;145.008;2023-02-16T08:36:37;100782.25;;;32.00;22.11
54870;BME280;40756;-37.950;145.008;2023-02-16T08:39:10;100782.88;;;31.39;22.22
54870;BME280;40756;-37.950;145.008;2023-02-16T08:41:43;100785.69;;;31.59;22.46
54870;BME280;40756;-37.950;145.008;2023-02-16T08:44:14;100783.53;;;31.55;22.53
54870;BME280;40756;-37.950;145.008;2023-02-16T08:46:45;100789.11;;;31.20;22.56
54870;BME280;40756;-37.950;145.008;2023-02-16T08:49:16;100786.95;;;31.36;22.75
54870;BME280;40756;-37.950;145.008;2023-02-16T08:51:48;100787.35;;;31.34;23.05
54870;BME280;40756;-37.950;145.008;2023-02-16T08:54:19;100797.58;;;31.37;23.42
54870;BME280;40756;-37.950;145.008;2023-02-16T08:56:49;100803.58;;;31.09;23.68
54870;BME280;40756;-37.950;145.008;2023-02-16T08:59:20;100805.02;;;30.67;24.00
54870;BME280;40756;-37.950;145.008;2023-02-16T09:01:51;100806.79;;;30.71;24.05
54870;BME280;40756;-37.950;145.008;2023-02-16T09:04:20;100809.62;;;30.55;24.22
54870;BME280;40756;-37.950;145.008;2023-02-16T09:06:49;100809.24;;;30.45;24.39
54870;BME280;40756;-37.950;145.008;2023-02-16T09:09:19;100810.92;;;30.67;24.16
54870;BME280;40756;-37.950;145.008;2023-02-16T09:11:49;100809.85;;;30.40;24.13
54870;BME280;40756;-37.950;145.008;2023-02-16T09:14:19;100814.99;;;30.52;24.07
54870;BME280;40756;-37.950;145.008;2023-02-16T09:16:49;100818.98;;;30.16;24.30
54870;BME280;40756;-37.950;145.008;2023-02-16T09:19:19;100822.87;;;30.27;24.64
54870;BME280;40756;-37.950;145.008;2023-02-16T09:21:49;100827.13;;;30.29;24.77
54870;BME280;40756;-37.950;145.008;2023-02-16T09:24:19;100831.43;;;30.25;24.63
54870;BME280;40756;-37.950;145.008;2023-02-16T09:26:49;100834.10;;;30.01;24.88
54870;BME280;40756;-37.950;145.008;2023-02-16T09:29:18;100839.35;;;30.42;25.04
54870;BME280;40756;-37.950;145.008;2023-02-16T09:31:48;100842.02;;;30.06;25.64
54870;BME280;40756;-37.950;145.008;2023-02-16T09:34:19;100844.48;;;29.86;25.63
54870;BME280;40756;-37.950;145.008;2023-02-16T09:36:50;100845.54;;;29.45;26.03
54870;BME280;40756;-37.950;145.008;2023-02-16T09:39:20;100843.22;;;29.76;26.24
54870;BME280;40756;-37.950;145.008;2023-02-16T09:42:02;100839.41;;;29.29;27.20
54870;BME280;40756;-37.950;145.008;2023-02-16T09:44:46;100834.51;;;29.37;26.83
54870;BME280;40756;-37.950;145.008;2023-02-16T09:47:22;100835.72;;;29.02;27.35
54870;BME280;40756;-37.950;145.008;2023-02-16T09:49:54;100840.95;;;29.46;26.91
54870;BME280;40756;-37.950;145.008;2023-02-16T09:52:29;100841.32;;;29.17;27.25
54870;BME280;40756;-37.950;145.008;2023-02-16T09:55:06;100844.84;;;29.17;27.60
54870;BME280;40756;-37.950;145.008;2023-02-16T09:57:45;100837.07;;;29.10;27.49
54870;BME280;40756;-37.950;145.008;2023-02-16T10:00:29;100832.29;;;29.20;27.49
54870;BME280;40756;-37.950;145.008;2023-02-16T10:03:06;100829.97;;;29.20;27.61
54870;BME280;40756;-37.950;145.008;2023-02-16T10:05:46;100822.64;;;29.02;27.66
54870;BME280;40756;-37.950;145.008;2023-02-16T10:08:24;100816.91;;;29.47;27.51
54870;BME280;40756;-37.950;145.008;2023-02-16T10:11:01;100816.80;;;29.35;27.41
54870;BME280;40756;-37.950;145.008;2023-02-16T10:13:39;100815.74;;;29.18;27.63
54870;BME280;40756;-37.950;145.008;2023-02-16T10:16:14;100812.34;;;29.32;27.54
54870;BME280;40756;-37.950;145.008;2023-02-16T10:18:49;100815.73;;;29.25;27.44
54870;BME280;40756;-37.950;145.008;2023-02-16T10:21:26;100818.60;;;29.16;27.58
54870;BME280;40756;-37.950;145.008;2023-02-16T10:23:59;100823.81;;;29.44;27.51
54870;BME280;40756;-37.950;145.008;2023-02-16T10:26:34;100827.03;;;29.55;27.35
54870;BME280;40756;-37.950;145.008;2023-02-16T10:29:10;100828.74;;;29.54;27.38
54870;BME280;40756;-37.950;145.008;2023-02-16T10:31:45;100828.94;;;29.60;27.22
54870;BME280;40756;-37.950;145.008;2023-02-16T10:34:24;100831.04;;;29.76;27.26
54870;BME280;40756;-37.950;145.008;2023-02-16T10:37:13;100829.90;;;29.76;27.36
54870;BME280;40756;-37.950;145.008;2023-02-16T10:39:54;100835.13;;;29.73;27.39
54870;BME280;40756;-37.950;145.008;2023-02-16T10:42:32;100848.55;;;29.53;27.25
54870;BME280;40756;-37.950;145.008;2023-02-16T10:45:10;100861.49;;;29.36;29.34
54870;BME280;40756;-37.950;145.008;2023-02-16T10:47:46;100877.15;;;29.77;27.47
54870;BME280;40756;-37.950;145.008;2023-02-16T10:50:22;100890.60;;;29.61;27.31
54870;BME280;40756;-37.950;145.008;2023-02-16T10:52:55;100899.33;;;29.45;27.60
54870;BME280;40756;-37.950;145.008;2023-02-16T10:55:26;100911.47;;;29.02;31.14
54870;BME280;40756;-37.950;145.008;2023-02-16T10:57:57;100919.38;;;28.77;31.85
54870;BME280;40756;-37.950;145.008;2023-02-16T11:00:39;100921.67;;;28.27;31.97
54870;BME280;40756;-37.950;145.008;2023-02-16T11:03:15;100919.41;;;28.33;31.73
54870;BME280;40756;-37.950;145.008;2023-02-16T11:05:44;100924.43;;;28.37;31.34
54870;BME280;40756;-37.950;145.008;2023-02-16T11:08:14;100932.31;;;28.57;31.06
54870;BME280;40756;-37.950;145.008;2023-02-16T11:10:46;100935.09;;;27.90;31.74
54870;BME280;40756;-37.950;145.008;2023-02-16T11:13:27;100932.90;;;28.47;32.56
54870;BME280;40756;-37.950;145.008;2023-02-16T11:16:00;100923.61;;;28.09;32.77
54870;BME280;40756;-37.950;145.008;2023-02-16T11:18:36;100919.64;;;27.91;32.85
54870;BME280;40756;-37.950;145.008;2023-02-16T11:21:08;100918.44;;;28.30;32.70
54870;BME280;40756;-37.950;145.008;2023-02-16T11:23:39;100918.44;;;27.96;32.47
54870;BME280;40756;-37.950;145.008;2023-02-16T11:26:25;100911.43;;;27.70;32.31
54870;BME280;40756;-37.950;145.008;2023-02-16T11:29:15;100909.29;;;27.48;32.37
54870;BME280;40756;-37.950;145.008;2023-02-16T11:31:46;100910.44;;;27.45;31.86
54870;BME280;40756;-37.950;145.008;2023-02-16T11:34:30;100912.21;;;27.65;31.58
54870;BME280;40756;-37.950;145.008;2023-02-16T11:37:06;100917.38;;;27.93;31.29
54870;BME280;40756;-37.950;145.008;2023-02-16T11:39:49;100910.43;;;27.53;31.03
54870;BME280;40756;-37.950;145.008;2023-02-16T11:42:27;100900.53;;;27.69;31.01
54870;BME280;40756;-37.950;145.008;2023-02-16T11:44:59;100884.04;;;27.73;30.50
54870;BME280;40756;-37.950;145.008;2023-02-16T11:47:33;100859.29;;;28.18;30.25
54870;BME280;40756;-37.950;145.008;2023-02-16T11:50:20;100851.79;;;28.51;29.58
54870;BME280;40756;-37.950;145.008;2023-02-16T11:52:52;100852.40;;;28.28;28.93
54870;BME280;40756;-37.950;145.008;2023-02-16T11:55:26;100853.82;;;28.49;28.54
54870;BME280;40756;-37.950;145.008;2023-02-16T11:58:15;100849.46;;;28.56;28.12
54870;BME280;40756;-37.950;145.008;2023-02-16T12:00:54;100838.96;;;28.98;27.56
54870;BME280;40756;-37.950;145.008;2023-02-16T12:03:38;100834.62;;;28.97;27.26
54870;BME280;40756;-37.950;145.008;2023-02-16T12:06:27;100832.71;;;29.16;27.06
54870;BME280;40756;-37.950;145.008;2023-02-16T12:09:07;100834.40;;;29.20;26.90
54870;BME280;40756;-37.950;145.008;2023-02-16T12:11:47;100826.97;;;29.27;26.80
54870;BME280;40756;-37.950;145.008;2023-02-16T12:14:25;100822.82;;;29.12;26.21
54870;BME280;40756;-37.950;145.008;2023-02-16T12:17:03;100824.75;;;29.11;26.42
54870;BME280;40756;-37.950;145.008;2023-02-16T12:19:41;100822.84;;;29.42;26.00
54870;BME280;40756;-37.950;145.008;2023-02-16T12:22:25;100818.22;;;29.20;26.07
54870;BME280;40756;-37.950;145.008;2023-02-16T12:25:15;100817.12;;;29.25;25.96
54870;BME280;40756;-37.950;145.008;2023-02-16T12:27:54;100818.85;;;29.19;26.02
54870;BME280;40756;-37.950;145.008;2023-02-16T12:30:37;100818.07;;;29.60;25.71
54870;BME280;40756;-37.950;145.008;2023-02-16T12:33:26;100813.48;;;29.74;25.57
54870;BME280;40756;-37.950;145.008;2023-02-16T12:36:14;100812.21;;;29.58;25.46
54870;BME280;40756;-37.950;145.008;2023-02-16T12:38:56;100806.81;;;29.81;25.39
54870;BME280;40756;-37.950;145.008;2023-02-16T12:41:42;100800.62;;;29.79;25.62
54870;BME280;40756;-37.950;145.008;2023-02-16T12:44:17;100807.86;;;29.59;25.34
54870;BME280;40756;-37.950;145.008;2023-02-16T12:46:54;100819.25;;;29.63;25.05
54870;BME280;40756;-37.950;145.008;2023-02-16T12:49:27;100820.76;;;29.97;25.38
54870;BME280;40756;-37.950;145.008;2023-02-16T12:52:05;100829.57;;;29.27;25.68
54870;BME280;40756;-37.950;145.008;2023-02-16T12:54:41;100833.23;;;29.47;25.29